Terminal Aerodrome Forecast
Issued by NWS

Home | Current Version | Previous Version | Graphics & Text | Print | Product List | Glossary On
Versions: 1 2 3 4 5 6 7 8 9 10 11 12 13 14 15 16 17 18 19 20
695
FTUS42 KMHX 232337
TAFPGV
TAF
KPGV 232337Z 2400/2424 24005KT P6SM VCTS BKN040CB
      TEMPO 2400/2403 4SM TSRA OVC025CB
     FM240500 VRB03KT P6SM BKN050
     FM240800 VRB03KT P6SM SCT020 BKN050
     FM241300 06008KT P6SM SCT050
      AMD LTD TO CLD VIS AND WIND=

USA.gov is the U.S. government's official web portal to all federal, state and local government web resources and services.